Alpena, MI

1:29 AM EST on February 24, 2017 (GMT -0500)
Lincoln Elementary School | | Change Station
Active Advisory: Winter Weather Advisory

Elev 587 ft 45.07 °N, 83.43 °W | Updated 13 seconds ago

Overcast
Overcast
32.7 °F
Feels Like 24 °F
N
10.3
Wind Variable Wind from SW
Gusts 12.3 mph

Today
High -- | Low -- °F
--% Chance of Precip.
Yesterday
High -- | Low -- °F
Precip. -- in
Pressure 29.93 in
Visibility 10.0 miles
Clouds Overcast 6500 ft
Windchill 24 °F
Dew Point 20 °F
Humidity 58%
Rainfall 0.00 in
Snow Depth Not available.
7:19 AM 6:14 PM
Waning Crescent, 6% visible
METAR KAPN 240554Z AUTO 35014KT 10SM OVC065 00/M04 A2991 RMK AO2 SNB16E31 SLP134 P0000 60000 T00001044 10028 20000 58009
Pressure 29.93 in
Visibility 10.0 miles
Clouds Overcast 6500 ft
Windchill 24 °F
Dew Point 20 °F
Humidity 58%
Rainfall 0.00 in
Snow Depth Not available.
7:19 AM 6:14 PM
Waning Crescent, 6% visible
METAR KAPN 240554Z AUTO 35014KT 10SM OVC065 00/M04 A2991 RMK AO2 SNB16E31 SLP134 P0000 60000 T00001044 10028 20000 58009

Get Your Daily Forecast Email!

Thanks for signing up!

Be on the lookout for a verification email in your inbox.

You'll start receiving the daily forecast at 8 AM.

×

10-Day Weather Forecast

Almanac

Astronomy

Feb. 24, 2017 Rise Set
Actual Time
Civil Twilight
Nautical Twilight
Astronomical Twilight
Moon
Length of Visible Light
Length of Day
Tomorrow will be .
, % of the Moon is Illuminated

Today's Extremes

State Highs State Lows

Community

WunderPhotos

Upload Photos

1,962,540 photos uploaded!

WunderBlog® & News

Nearby

Air Quality

  Air Quality AQ Index Pollutant
Not available.

Snow Depth

Station Depth Elevation

Earthquake Activity

City Distance Mag. Time & Date
Minimum magnitude displayed is 2.5.

Coastal Water Temperatures

Place Temperature

Stations

Nearby Weather Stations

Station Location Temp. Windchill Dew Point Humidity Wind Precip. Elev Updated Type
                   

Watches & Warnings

Winter Weather Advisory
Issued: 11:18 PM EST Feb. 23, 2017 – National Weather Service

... Winter Weather Advisory in effect until 1 am EST Saturday...

The National Weather Service in Gaylord has issued a Winter
Weather Advisory for snow and freezing rain... which is in effect
until 1 am EST Saturday.

* Snow will develop overnight and transition to a wintry mix of
snow... sleet and freezing rain on Friday

* the heaviest snowfall rates will occur between 7 am and 1 PM
Friday.

* Wet snow accumulations of 2 to 4 inches and light ice
accumulations.

* Look for reduced visibilities at times.

* Plan on slippery Road conditions... .including during the
morning commute on Friday.

Precautionary/preparedness actions...

A Winter Weather Advisory means that periods of snow... sleet or
freezing rain will cause travel difficulties. Be prepared for
slippery roads and limited visibilities... and use caution while
driving. For the latest Road conditions... go to the mdot website
at Michigan.Gov.